sensor_id;sensor_type;location;lat;lon;timestamp;P1;durP1;ratioP1;P2;durP2;ratioP2
63567;SDS011;49715;42.386;20.434;2022-07-03T00:49:57;28.05;;;13.23;;
63567;SDS011;49715;42.386;20.434;2022-07-03T00:52:26;23.10;;;13.32;;
63567;SDS011;49715;42.386;20.434;2022-07-03T00:54:57;25.48;;;14.50;;
63567;SDS011;49715;42.386;20.434;2022-07-03T00:57:25;20.75;;;13.57;;
63567;SDS011;49715;42.386;20.434;2022-07-03T00:59:53;20.60;;;12.65;;
63567;SDS011;49715;42.386;20.434;2022-07-03T01:13:39;23.13;;;13.73;;
63567;SDS011;49715;42.386;20.434;2022-07-03T01:16:24;20.75;;;12.70;;
63567;SDS011;49715;42.386;20.434;2022-07-03T01:19:08;23.55;;;12.43;;
63567;SDS011;49715;42.386;20.434;2022-07-03T01:24:37;21.58;;;12.30;;
63567;SDS011;49715;42.386;20.434;2022-07-03T01:27:19;17.75;;;12.60;;
63567;SDS011;49715;42.386;20.434;2022-07-03T01:30:05;20.45;;;11.82;;
63567;SDS011;49715;42.386;20.434;2022-07-03T01:32:37;13.15;;;10.20;;
63567;SDS011;49715;42.386;20.434;2022-07-03T01:35:07;15.23;;;10.73;;
63567;SDS011;49715;42.386;20.434;2022-07-03T01:37:38;15.88;;;10.98;;
63567;SDS011;49715;42.386;20.434;2022-07-03T01:40:06;20.23;;;11.48;;
63567;SDS011;49715;42.386;20.434;2022-07-03T01:42:34;17.45;;;11.60;;
63567;SDS011;49715;42.386;20.434;2022-07-03T01:45:08;16.98;;;11.95;;
63567;SDS011;49715;42.386;20.434;2022-07-03T01:47:40;18.73;;;11.98;;
63567;SDS011;49715;42.386;20.434;2022-07-03T01:50:11;18.52;;;11.77;;
63567;SDS011;49715;42.386;20.434;2022-07-03T01:52:41;14.80;;;11.23;;
63567;SDS011;49715;42.386;20.434;2022-07-03T01:55:09;18.42;;;11.73;;
63567;SDS011;49715;42.386;20.434;2022-07-03T01:57:44;17.42;;;11.63;;
63567;SDS011;49715;42.386;20.434;2022-07-03T02:00:14;20.00;;;12.35;;
63567;SDS011;49715;42.386;20.434;2022-07-03T02:02:46;17.15;;;11.27;;
63567;SDS011;49715;42.386;20.434;2022-07-03T02:05:30;18.98;;;12.45;;
63567;SDS011;49715;42.386;20.434;2022-07-03T02:10:41;18.17;;;12.93;;
63567;SDS011;49715;42.386;20.434;2022-07-03T02:13:16;19.60;;;12.40;;
63567;SDS011;49715;42.386;20.434;2022-07-03T02:15:49;16.55;;;11.02;;
63567;SDS011;49715;42.386;20.434;2022-07-03T02:21:19;19.60;;;12.35;;
63567;SDS011;49715;42.386;20.434;2022-07-03T02:26:22;59.45;;;41.83;;
63567;SDS011;49715;42.386;20.434;2022-07-03T02:29:05;68.55;;;46.72;;
63567;SDS011;49715;42.386;20.434;2022-07-03T02:31:46;73.97;;;45.95;;
63567;SDS011;49715;42.386;20.434;2022-07-03T02:34:24;61.33;;;43.28;;
63567;SDS011;49715;42.386;20.434;2022-07-03T02:36:55;79.05;;;51.22;;
63567;SDS011;49715;42.386;20.434;2022-07-03T02:39:32;72.07;;;48.08;;
63567;SDS011;49715;42.386;20.434;2022-07-03T02:42:05;69.18;;;47.17;;
63567;SDS011;49715;42.386;20.434;2022-07-03T02:45:03;33.33;;;21.10;;
63567;SDS011;49715;42.386;20.434;2022-07-03T02:50:25;24.67;;;17.80;;
63567;SDS011;49715;42.386;20.434;2022-07-03T02:52:56;33.33;;;18.98;;
63567;SDS011;49715;42.386;20.434;2022-07-03T03:06:47;111.90;;;76.93;;
63567;SDS011;49715;42.386;20.434;2022-07-03T03:09:20;112.13;;;77.85;;
63567;SDS011;49715;42.386;20.434;2022-07-03T03:11:50;126.50;;;88.13;;
63567;SDS011;49715;42.386;20.434;2022-07-03T03:14:19;134.63;;;95.22;;
63567;SDS011;49715;42.386;20.434;2022-07-03T03:16:50;142.55;;;99.57;;
63567;SDS011;49715;42.386;20.434;2022-07-03T03:19:22;101.82;;;76.82;;
63567;SDS011;49715;42.386;20.434;2022-07-03T03:21:58;99.30;;;71.22;;
63567;SDS011;49715;42.386;20.434;2022-07-03T03:24:39;64.47;;;48.13;;
63567;SDS011;49715;42.386;20.434;2022-07-03T03:27:06;60.78;;;43.75;;
63567;SDS011;49715;42.386;20.434;2022-07-03T03:29:33;33.97;;;22.33;;
63567;SDS011;49715;42.386;20.434;2022-07-03T03:32:00;38.42;;;28.50;;
63567;SDS011;49715;42.386;20.434;2022-07-03T03:34:28;39.90;;;27.63;;
63567;SDS011;49715;42.386;20.434;2022-07-03T03:36:58;46.47;;;35.15;;
63567;SDS011;49715;42.386;20.434;2022-07-03T03:39:25;47.67;;;37.10;;
63567;SDS011;49715;42.386;20.434;2022-07-03T03:41:52;53.70;;;38.22;;
63567;SDS011;49715;42.386;20.434;2022-07-03T03:44:19;50.53;;;35.67;;
63567;SDS011;49715;42.386;20.434;2022-07-03T03:46:45;50.92;;;34.78;;
63567;SDS011;49715;42.386;20.434;2022-07-03T03:49:12;57.85;;;39.80;;
63567;SDS011;49715;42.386;20.434;2022-07-03T03:51:38;70.55;;;49.85;;
63567;SDS011;49715;42.386;20.434;2022-07-03T03:54:05;36.08;;;26.60;;
63567;SDS011;49715;42.386;20.434;2022-07-03T03:56:31;29.13;;;20.50;;
63567;SDS011;49715;42.386;20.434;2022-07-03T03:58:59;25.02;;;17.77;;
63567;SDS011;49715;42.386;20.434;2022-07-03T04:01:25;26.27;;;18.33;;
63567;SDS011;49715;42.386;20.434;2022-07-03T04:03:51;24.33;;;17.70;;
63567;SDS011;49715;42.386;20.434;2022-07-03T04:06:21;24.67;;;17.05;;
63567;SDS011;49715;42.386;20.434;2022-07-03T04:08:47;21.38;;;15.20;;
63567;SDS011;49715;42.386;20.434;2022-07-03T04:11:14;20.80;;;15.60;;
63567;SDS011;49715;42.386;20.434;2022-07-03T04:13:40;21.25;;;15.90;;
63567;SDS011;49715;42.386;20.434;2022-07-03T04:16:06;26.08;;;17.17;;
63567;SDS011;49715;42.386;20.434;2022-07-03T04:18:33;23.23;;;15.82;;
63567;SDS011;49715;42.386;20.434;2022-07-03T04:21:00;26.75;;;17.60;;
63567;SDS011;49715;42.386;20.434;2022-07-03T04:23:27;24.83;;;18.13;;
63567;SDS011;49715;42.386;20.434;2022-07-03T04:25:53;21.30;;;18.92;;
63567;SDS011;49715;42.386;20.434;2022-07-03T04:28:19;23.95;;;19.33;;
63567;SDS011;49715;42.386;20.434;2022-07-03T04:33:13;24.63;;;14.38;;
63567;SDS011;49715;42.386;20.434;2022-07-03T04:35:39;22.95;;;15.40;;
63567;SDS011;49715;42.386;20.434;2022-07-03T04:38:06;24.92;;;15.25;;
63567;SDS011;49715;42.386;20.434;2022-07-03T04:40:32;24.95;;;17.23;;
63567;SDS011;49715;42.386;20.434;2022-07-03T04:42:59;23.02;;;15.95;;
63567;SDS011;49715;42.386;20.434;2022-07-03T04:45:25;27.13;;;16.92;;
63567;SDS011;49715;42.386;20.434;2022-07-03T04:47:52;24.67;;;16.52;;
63567;SDS011;49715;42.386;20.434;2022-07-03T04:50:18;17.85;;;14.13;;
63567;SDS011;49715;42.386;20.434;2022-07-03T04:52:45;25.27;;;15.52;;
63567;SDS011;49715;42.386;20.434;2022-07-03T04:55:11;21.90;;;13.15;;
63567;SDS011;49715;42.386;20.434;2022-07-03T04:57:38;20.17;;;15.07;;
63567;SDS011;49715;42.386;20.434;2022-07-03T05:00:05;21.38;;;14.00;;
63567;SDS011;49715;42.386;20.434;2022-07-03T05:02:33;23.45;;;15.73;;
63567;SDS011;49715;42.386;20.434;2022-07-03T05:07:26;14.13;;;12.38;;
63567;SDS011;49715;42.386;20.434;2022-07-03T05:09:53;22.73;;;13.73;;
63567;SDS011;49715;42.386;20.434;2022-07-03T05:12:19;23.33;;;14.95;;
63567;SDS011;49715;42.386;20.434;2022-07-03T05:14:46;23.35;;;15.05;;
63567;SDS011;49715;42.386;20.434;2022-07-03T05:19:39;28.77;;;14.73;;
63567;SDS011;49715;42.386;20.434;2022-07-03T05:22:05;21.25;;;13.43;;
63567;SDS011;49715;42.386;20.434;2022-07-03T05:24:31;20.60;;;13.43;;
63567;SDS011;49715;42.386;20.434;2022-07-03T05:26:58;20.17;;;11.73;;
63567;SDS011;49715;42.386;20.434;2022-07-03T05:29:24;22.60;;;11.55;;
63567;SDS011;49715;42.386;20.434;2022-07-03T05:31:50;19.02;;;11.70;;
63567;SDS011;49715;42.386;20.434;2022-07-03T05:34:17;21.02;;;11.52;;
63567;SDS011;49715;42.386;20.434;2022-07-03T05:36:44;25.38;;;11.95;;
63567;SDS011;49715;42.386;20.434;2022-07-03T05:39:15;20.40;;;12.13;;
63567;SDS011;49715;42.386;20.434;2022-07-03T05:42:01;22.33;;;12.05;;
63567;SDS011;49715;42.386;20.434;2022-07-03T05:44:27;27.88;;;14.02;;
63567;SDS011;49715;42.386;20.434;2022-07-03T05:46:55;22.65;;;13.27;;
63567;SDS011;49715;42.386;20.434;2022-07-03T05:49:21;21.67;;;13.73;;
63567;SDS011;49715;42.386;20.434;2022-07-03T05:54:14;29.00;;;13.93;;
63567;SDS011;49715;42.386;20.434;2022-07-03T05:56:41;23.98;;;14.32;;
63567;SDS011;49715;42.386;20.434;2022-07-03T05:59:07;23.25;;;13.48;;
63567;SDS011;49715;42.386;20.434;2022-07-03T06:01:34;25.10;;;14.60;;
63567;SDS011;49715;42.386;20.434;2022-07-03T06:06:27;28.55;;;16.15;;
63567;SDS011;49715;42.386;20.434;2022-07-03T06:08:54;19.20;;;12.63;;
63567;SDS011;49715;42.386;20.434;2022-07-03T06:11:20;27.52;;;14.15;;
63567;SDS011;49715;42.386;20.434;2022-07-03T06:13:47;23.38;;;13.38;;
63567;SDS011;49715;42.386;20.434;2022-07-03T06:16:14;24.42;;;12.93;;
63567;SDS011;49715;42.386;20.434;2022-07-03T06:18:40;26.13;;;14.43;;
63567;SDS011;49715;42.386;20.434;2022-07-03T06:21:07;25.52;;;12.77;;
63567;SDS011;49715;42.386;20.434;2022-07-03T06:23:34;20.17;;;12.68;;
63567;SDS011;49715;42.386;20.434;2022-07-03T06:26:00;21.85;;;12.52;;
63567;SDS011;49715;42.386;20.434;2022-07-03T06:28:27;29.65;;;12.82;;
63567;SDS011;49715;42.386;20.434;2022-07-03T06:30:53;22.25;;;12.27;;
63567;SDS011;49715;42.386;20.434;2022-07-03T06:35:48;17.88;;;11.27;;
63567;SDS011;49715;42.386;20.434;2022-07-03T06:38:15;19.92;;;12.27;;
63567;SDS011;49715;42.386;20.434;2022-07-03T06:40:41;25.00;;;11.95;;
63567;SDS011;49715;42.386;20.434;2022-07-03T06:43:08;22.83;;;11.85;;
63567;SDS011;49715;42.386;20.434;2022-07-03T06:45:35;21.70;;;12.60;;
63567;SDS011;49715;42.386;20.434;2022-07-03T06:48:01;23.98;;;12.63;;
63567;SDS011;49715;42.386;20.434;2022-07-03T06:50:28;24.25;;;10.73;;
63567;SDS011;49715;42.386;20.434;2022-07-03T06:52:54;22.90;;;10.88;;
63567;SDS011;49715;42.386;20.434;2022-07-03T06:55:20;17.55;;;10.95;;
63567;SDS011;49715;42.386;20.434;2022-07-03T06:57:47;21.33;;;10.93;;
63567;SDS011;49715;42.386;20.434;2022-07-03T07:00:13;19.92;;;10.85;;
63567;SDS011;49715;42.386;20.434;2022-07-03T07:02:40;21.35;;;10.57;;
63567;SDS011;49715;42.386;20.434;2022-07-03T07:05:07;20.42;;;9.70;;
63567;SDS011;49715;42.386;20.434;2022-07-03T07:07:33;18.83;;;10.50;;
63567;SDS011;49715;42.386;20.434;2022-07-03T07:10:00;22.27;;;11.18;;
63567;SDS011;49715;42.386;20.434;2022-07-03T07:12:26;23.88;;;12.13;;
63567;SDS011;49715;42.386;20.434;2022-07-03T07:14:53;16.65;;;9.95;;
63567;SDS011;49715;42.386;20.434;2022-07-03T07:17:19;17.10;;;9.88;;
63567;SDS011;49715;42.386;20.434;2022-07-03T07:19:46;14.35;;;8.88;;
63567;SDS011;49715;42.386;20.434;2022-07-03T07:22:12;24.48;;;9.32;;
63567;SDS011;49715;42.386;20.434;2022-07-03T07:24:39;22.00;;;9.65;;
63567;SDS011;49715;42.386;20.434;2022-07-03T07:27:05;21.80;;;9.20;;
63567;SDS011;49715;42.386;20.434;2022-07-03T07:29:32;15.73;;;8.52;;
63567;SDS011;49715;42.386;20.434;2022-07-03T07:31:58;12.05;;;8.32;;
63567;SDS011;49715;42.386;20.434;2022-07-03T07:34:26;15.07;;;8.48;;
63567;SDS011;49715;42.386;20.434;2022-07-03T07:36:53;11.07;;;8.30;;
63567;SDS011;49715;42.386;20.434;2022-07-03T07:39:19;10.10;;;7.60;;
63567;SDS011;49715;42.386;20.434;2022-07-03T07:41:46;12.90;;;7.57;;
63567;SDS011;49715;42.386;20.434;2022-07-03T07:44:12;14.75;;;7.82;;
63567;SDS011;49715;42.386;20.434;2022-07-03T07:46:39;23.77;;;8.45;;
63567;SDS011;49715;42.386;20.434;2022-07-03T07:49:05;13.50;;;8.15;;
63567;SDS011;49715;42.386;20.434;2022-07-03T07:51:32;19.13;;;7.75;;
63567;SDS011;49715;42.386;20.434;2022-07-03T07:53:58;17.70;;;8.45;;
63567;SDS011;49715;42.386;20.434;2022-07-03T07:58:51;12.40;;;7.90;;
63567;SDS011;49715;42.386;20.434;2022-07-03T08:01:18;12.82;;;7.53;;
63567;SDS011;49715;42.386;20.434;2022-07-03T08:04:04;14.48;;;8.02;;
63567;SDS011;49715;42.386;20.434;2022-07-03T08:06:50;14.07;;;8.20;;
63567;SDS011;49715;42.386;20.434;2022-07-03T08:09:17;14.07;;;8.15;;
63567;SDS011;49715;42.386;20.434;2022-07-03T08:11:43;11.90;;;7.53;;
63567;SDS011;49715;42.386;20.434;2022-07-03T08:14:09;10.93;;;8.05;;
63567;SDS011;49715;42.386;20.434;2022-07-03T08:16:37;13.23;;;8.00;;
63567;SDS011;49715;42.386;20.434;2022-07-03T08:19:05;10.95;;;7.10;;
63567;SDS011;49715;42.386;20.434;2022-07-03T08:21:31;11.63;;;7.97;;
63567;SDS011;49715;42.386;20.434;2022-07-03T08:23:58;12.45;;;7.40;;
63567;SDS011;49715;42.386;20.434;2022-07-03T08:31:18;12.13;;;7.45;;
63567;SDS011;49715;42.386;20.434;2022-07-03T08:33:44;10.07;;;8.35;;
63567;SDS011;49715;42.386;20.434;2022-07-03T08:36:12;11.63;;;7.68;;
63567;SDS011;49715;42.386;20.434;2022-07-03T08:38:39;18.17;;;7.43;;
63567;SDS011;49715;42.386;20.434;2022-07-03T08:41:07;13.32;;;7.30;;
63567;SDS011;49715;42.386;20.434;2022-07-03T08:43:35;12.43;;;7.75;;
63567;SDS011;49715;42.386;20.434;2022-07-03T08:46:03;10.85;;;7.75;;
63567;SDS011;49715;42.386;20.434;2022-07-03T08:48:32;8.50;;;6.78;;
63567;SDS011;49715;42.386;20.434;2022-07-03T08:51:05;11.95;;;7.32;;
63567;SDS011;49715;42.386;20.434;2022-07-03T08:53:32;15.90;;;7.50;;
63567;SDS011;49715;42.386;20.434;2022-07-03T08:58:26;12.73;;;7.35;;
63567;SDS011;49715;42.386;20.434;2022-07-03T09:00:56;10.57;;;7.20;;
63567;SDS011;49715;42.386;20.434;2022-07-03T09:03:24;8.30;;;6.47;;
63567;SDS011;49715;42.386;20.434;2022-07-03T09:05:51;17.35;;;7.47;;
63567;SDS011;49715;42.386;20.434;2022-07-03T09:10:44;13.20;;;7.35;;
63567;SDS011;49715;42.386;20.434;2022-07-03T09:13:11;10.98;;;6.32;;
63567;SDS011;49715;42.386;20.434;2022-07-03T09:15:38;10.05;;;6.40;;
63567;SDS011;49715;42.386;20.434;2022-07-03T09:18:05;12.05;;;7.20;;
63567;SDS011;49715;42.386;20.434;2022-07-03T09:20:34;13.05;;;6.97;;
63567;SDS011;49715;42.386;20.434;2022-07-03T09:23:12;11.38;;;6.60;;
63567;SDS011;49715;42.386;20.434;2022-07-03T09:28:19;9.57;;;6.50;;
63567;SDS011;49715;42.386;20.434;2022-07-03T09:31:00;15.02;;;6.72;;
63567;SDS011;49715;42.386;20.434;2022-07-03T09:33:27;11.32;;;7.13;;
63567;SDS011;49715;42.386;20.434;2022-07-03T09:35:54;9.93;;;6.57;;
63567;SDS011;49715;42.386;20.434;2022-07-03T09:38:22;9.02;;;6.40;;
63567;SDS011;49715;42.386;20.434;2022-07-03T09:40:53;9.18;;;6.10;;
63567;SDS011;49715;42.386;20.434;2022-07-03T09:46:02;10.48;;;6.47;;
63567;SDS011;49715;42.386;20.434;2022-07-03T09:48:30;8.13;;;6.78;;
63567;SDS011;49715;42.386;20.434;2022-07-03T09:53:50;10.70;;;6.43;;
63567;SDS011;49715;42.386;20.434;2022-07-03T09:56:20;7.90;;;6.20;;
63567;SDS011;49715;42.386;20.434;2022-07-03T09:59:08;7.43;;;6.07;;
63567;SDS011;49715;42.386;20.434;2022-07-03T10:01:37;9.75;;;5.82;;
63567;SDS011;49715;42.386;20.434;2022-07-03T10:09:22;9.07;;;5.53;;
63567;SDS011;49715;42.386;20.434;2022-07-03T10:11:51;10.38;;;6.22;;
63567;SDS011;49715;42.386;20.434;2022-07-03T10:14:19;10.35;;;6.00;;
63567;SDS011;49715;42.386;20.434;2022-07-03T10:16:47;9.73;;;6.45;;
63567;SDS011;49715;42.386;20.434;2022-07-03T10:19:18;15.15;;;6.25;;
63567;SDS011;49715;42.386;20.434;2022-07-03T10:21:56;8.85;;;5.95;;
63567;SDS011;49715;42.386;20.434;2022-07-03T10:24:25;14.02;;;6.13;;
63567;SDS011;49715;42.386;20.434;2022-07-03T10:26:53;8.35;;;5.78;;
63567;SDS011;49715;42.386;20.434;2022-07-03T10:29:22;7.63;;;5.78;;
63567;SDS011;49715;42.386;20.434;2022-07-03T10:31:50;8.27;;;5.90;;
63567;SDS011;49715;42.386;20.434;2022-07-03T10:34:17;10.52;;;6.15;;
63567;SDS011;49715;42.386;20.434;2022-07-03T10:36:46;11.73;;;6.47;;
63567;SDS011;49715;42.386;20.434;2022-07-03T10:39:32;10.23;;;6.15;;
63567;SDS011;49715;42.386;20.434;2022-07-03T10:42:03;11.73;;;6.38;;
63567;SDS011;49715;42.386;20.434;2022-07-03T10:45:02;12.93;;;5.82;;
63567;SDS011;49715;42.386;20.434;2022-07-03T10:50:08;8.60;;;6.38;;
63567;SDS011;49715;42.386;20.434;2022-07-03T10:52:48;14.93;;;6.00;;
63567;SDS011;49715;42.386;20.434;2022-07-03T10:55:15;11.07;;;6.18;;
63567;SDS011;49715;42.386;20.434;2022-07-03T10:58:05;14.68;;;6.80;;
63567;SDS011;49715;42.386;20.434;2022-07-03T11:00:53;12.63;;;6.25;;
63567;SDS011;49715;42.386;20.434;2022-07-03T11:06:20;13.40;;;6.35;;
63567;SDS011;49715;42.386;20.434;2022-07-03T11:09:00;11.05;;;6.18;;
63567;SDS011;49715;42.386;20.434;2022-07-03T11:11:44;9.55;;;6.32;;
63567;SDS011;49715;42.386;20.434;2022-07-03T11:14:22;10.30;;;6.50;;
63567;SDS011;49715;42.386;20.434;2022-07-03T11:19:49;9.35;;;5.80;;
63567;SDS011;49715;42.386;20.434;2022-07-03T11:25:42;8.50;;;6.05;;
63567;SDS011;49715;42.386;20.434;2022-07-03T11:36:10;14.00;;;5.95;;
63567;SDS011;49715;42.386;20.434;2022-07-03T11:38:46;7.93;;;5.43;;
63567;SDS011;49715;42.386;20.434;2022-07-03T11:41:18;15.77;;;5.70;;
63567;SDS011;49715;42.386;20.434;2022-07-03T11:43:48;9.07;;;5.47;;
63567;SDS011;49715;42.386;20.434;2022-07-03T11:46:21;8.27;;;5.63;;
63567;SDS011;49715;42.386;20.434;2022-07-03T11:48:50;8.90;;;5.20;;
63567;SDS011;49715;42.386;20.434;2022-07-03T11:51:38;9.30;;;5.22;;
63567;SDS011;49715;42.386;20.434;2022-07-03T11:54:06;9.30;;;5.38;;
63567;SDS011;49715;42.386;20.434;2022-07-03T11:56:35;11.52;;;5.78;;
63567;SDS011;49715;42.386;20.434;2022-07-03T11:59:05;7.95;;;5.38;;
63567;SDS011;49715;42.386;20.434;2022-07-03T12:01:36;8.98;;;5.22;;
63567;SDS011;49715;42.386;20.434;2022-07-03T12:14:39;11.43;;;5.80;;
63567;SDS011;49715;42.386;20.434;2022-07-03T12:17:14;8.57;;;5.15;;
63567;SDS011;49715;42.386;20.434;2022-07-03T12:19:48;10.75;;;5.22;;
63567;SDS011;49715;42.386;20.434;2022-07-03T12:25:01;8.27;;;5.25;;
63567;SDS011;49715;42.386;20.434;2022-07-03T12:27:37;11.20;;;4.97;;
63567;SDS011;49715;42.386;20.434;2022-07-03T12:30:05;8.40;;;4.82;;
63567;SDS011;49715;42.386;20.434;2022-07-03T12:32:33;9.45;;;5.55;;
63567;SDS011;49715;42.386;20.434;2022-07-03T12:35:00;9.95;;;4.97;;
63567;SDS011;49715;42.386;20.434;2022-07-03T12:37:33;8.23;;;5.03;;
63567;SDS011;49715;42.386;20.434;2022-07-03T12:40:05;6.38;;;4.47;;
63567;SDS011;49715;42.386;20.434;2022-07-03T12:42:42;9.55;;;5.10;;
63567;SDS011;49715;42.386;20.434;2022-07-03T12:45:19;14.00;;;5.20;;
63567;SDS011;49715;42.386;20.434;2022-07-03T12:47:59;9.75;;;5.40;;
63567;SDS011;49715;42.386;20.434;2022-07-03T12:50:49;11.27;;;5.03;;
63567;SDS011;49715;42.386;20.434;2022-07-03T12:53:31;10.88;;;4.97;;
63567;SDS011;49715;42.386;20.434;2022-07-03T12:56:02;7.25;;;4.65;;
63567;SDS011;49715;42.386;20.434;2022-07-03T12:58:36;10.68;;;4.78;;
63567;SDS011;49715;42.386;20.434;2022-07-03T13:01:24;9.10;;;5.25;;
63567;SDS011;49715;42.386;20.434;2022-07-03T13:03:51;10.98;;;4.97;;
63567;SDS011;49715;42.386;20.434;2022-07-03T13:06:20;8.75;;;5.00;;
63567;SDS011;49715;42.386;20.434;2022-07-03T13:08:58;13.07;;;5.35;;
63567;SDS011;49715;42.386;20.434;2022-07-03T13:11:30;12.55;;;4.90;;
63567;SDS011;49715;42.386;20.434;2022-07-03T13:14:12;9.48;;;4.63;;
63567;SDS011;49715;42.386;20.434;2022-07-03T13:16:41;8.93;;;4.63;;
63567;SDS011;49715;42.386;20.434;2022-07-03T13:19:08;8.68;;;5.05;;
63567;SDS011;49715;42.386;20.434;2022-07-03T13:21:36;11.35;;;5.00;;
63567;SDS011;49715;42.386;20.434;2022-07-03T13:24:03;10.23;;;5.13;;
63567;SDS011;49715;42.386;20.434;2022-07-03T13:26:33;7.15;;;4.70;;
63567;SDS011;49715;42.386;20.434;2022-07-03T13:28:59;12.15;;;5.20;;
63567;SDS011;49715;42.386;20.434;2022-07-03T13:31:26;9.85;;;4.60;;
63567;SDS011;49715;42.386;20.434;2022-07-03T13:33:53;7.10;;;4.88;;
63567;SDS011;49715;42.386;20.434;2022-07-03T13:36:20;11.55;;;4.80;;
63567;SDS011;49715;42.386;20.434;2022-07-03T13:38:46;8.75;;;4.80;;
63567;SDS011;49715;42.386;20.434;2022-07-03T13:41:13;9.90;;;4.57;;
63567;SDS011;49715;42.386;20.434;2022-07-03T13:43:40;8.02;;;4.55;;
63567;SDS011;49715;42.386;20.434;2022-07-03T13:46:06;7.53;;;4.43;;
63567;SDS011;49715;42.386;20.434;2022-07-03T13:48:33;11.13;;;4.70;;
63567;SDS011;49715;42.386;20.434;2022-07-03T13:50:59;7.72;;;5.22;;
63567;SDS011;49715;42.386;20.434;2022-07-03T13:53:26;8.48;;;4.65;;
63567;SDS011;49715;42.386;20.434;2022-07-03T13:55:54;9.55;;;5.00;;
63567;SDS011;49715;42.386;20.434;2022-07-03T13:58:21;5.15;;;4.57;;
63567;SDS011;49715;42.386;20.434;2022-07-03T14:00:49;7.72;;;4.72;;
63567;SDS011;49715;42.386;20.434;2022-07-03T14:03:15;8.63;;;4.90;;
63567;SDS011;49715;42.386;20.434;2022-07-03T14:05:42;5.45;;;4.50;;
63567;SDS011;49715;42.386;20.434;2022-07-03T14:08:09;7.35;;;4.50;;
63567;SDS011;49715;42.386;20.434;2022-07-03T14:10:35;11.55;;;4.82;;
63567;SDS011;49715;42.386;20.434;2022-07-03T14:13:02;7.68;;;4.53;;
63567;SDS011;49715;42.386;20.434;2022-07-03T14:15:29;6.20;;;4.30;;
63567;SDS011;49715;42.386;20.434;2022-07-03T14:17:55;8.65;;;4.80;;
63567;SDS011;49715;42.386;20.434;2022-07-03T14:20:26;7.32;;;4.18;;
63567;SDS011;49715;42.386;20.434;2022-07-03T14:22:52;7.88;;;4.53;;
63567;SDS011;49715;42.386;20.434;2022-07-03T14:25:19;6.88;;;4.60;;
63567;SDS011;49715;42.386;20.434;2022-07-03T14:27:46;7.07;;;4.60;;
63567;SDS011;49715;42.386;20.434;2022-07-03T14:30:31;10.60;;;5.00;;
63567;SDS011;49715;42.386;20.434;2022-07-03T14:33:15;6.15;;;4.55;;
63567;SDS011;49715;42.386;20.434;2022-07-03T14:35:43;6.97;;;4.68;;
63567;SDS011;49715;42.386;20.434;2022-07-03T14:38:12;8.25;;;4.32;;
63567;SDS011;49715;42.386;20.434;2022-07-03T14:40:42;7.18;;;4.40;;
63567;SDS011;49715;42.386;20.434;2022-07-03T14:43:09;7.05;;;4.07;;
63567;SDS011;49715;42.386;20.434;2022-07-03T14:45:35;6.57;;;4.05;;
63567;SDS011;49715;42.386;20.434;2022-07-03T14:48:02;7.80;;;4.20;;
63567;SDS011;49715;42.386;20.434;2022-07-03T14:50:29;8.20;;;4.53;;
63567;SDS011;49715;42.386;20.434;2022-07-03T14:52:57;6.63;;;4.80;;
63567;SDS011;49715;42.386;20.434;2022-07-03T14:55:29;10.00;;;4.68;;
63567;SDS011;49715;42.386;20.434;2022-07-03T14:58:21;7.50;;;4.40;;
63567;SDS011;49715;42.386;20.434;2022-07-03T15:00:53;5.35;;;4.53;;
63567;SDS011;49715;42.386;20.434;2022-07-03T15:03:33;6.28;;;4.30;;
63567;SDS011;49715;42.386;20.434;2022-07-03T15:06:02;10.68;;;4.47;;
63567;SDS011;49715;42.386;20.434;2022-07-03T15:11:12;6.93;;;3.92;;
63567;SDS011;49715;42.386;20.434;2022-07-03T15:14:04;6.95;;;4.35;;
63567;SDS011;49715;42.386;20.434;2022-07-03T15:16:32;10.43;;;4.55;;
63567;SDS011;49715;42.386;20.434;2022-07-03T15:19:00;7.30;;;4.47;;
63567;SDS011;49715;42.386;20.434;2022-07-03T15:21:29;5.93;;;4.03;;
63567;SDS011;49715;42.386;20.434;2022-07-03T15:24:01;9.63;;;4.80;;
63567;SDS011;49715;42.386;20.434;2022-07-03T15:26:31;6.55;;;4.20;;
63567;SDS011;49715;42.386;20.434;2022-07-03T15:28:59;10.02;;;4.65;;
63567;SDS011;49715;42.386;20.434;2022-07-03T15:31:28;7.07;;;4.43;;
63567;SDS011;49715;42.386;20.434;2022-07-03T15:34:03;7.57;;;4.20;;
63567;SDS011;49715;42.386;20.434;2022-07-03T15:36:35;5.80;;;3.95;;
63567;SDS011;49715;42.386;20.434;2022-07-03T15:39:11;7.32;;;4.28;;
63567;SDS011;49715;42.386;20.434;2022-07-03T15:44:38;10.65;;;4.70;;
63567;SDS011;49715;42.386;20.434;2022-07-03T15:47:36;5.53;;;3.78;;
63567;SDS011;49715;42.386;20.434;2022-07-03T15:50:28;7.75;;;4.20;;
63567;SDS011;49715;42.386;20.434;2022-07-03T15:53:10;8.88;;;4.65;;
63567;SDS011;49715;42.386;20.434;2022-07-03T15:55:41;10.43;;;4.28;;
63567;SDS011;49715;42.386;20.434;2022-07-03T15:58:11;6.82;;;4.15;;
63567;SDS011;49715;42.386;20.434;2022-07-03T16:00:50;6.68;;;4.28;;
63567;SDS011;49715;42.386;20.434;2022-07-03T16:03:38;6.05;;;3.92;;
63567;SDS011;49715;42.386;20.434;2022-07-03T16:06:17;6.78;;;4.22;;
63567;SDS011;49715;42.386;20.434;2022-07-03T16:08:44;6.40;;;4.30;;
63567;SDS011;49715;42.386;20.434;2022-07-03T16:11:15;6.32;;;4.35;;
63567;SDS011;49715;42.386;20.434;2022-07-03T16:13:42;7.40;;;4.25;;
63567;SDS011;49715;42.386;20.434;2022-07-03T16:16:14;6.22;;;4.30;;
63567;SDS011;49715;42.386;20.434;2022-07-03T16:18:41;7.78;;;4.57;;
63567;SDS011;49715;42.386;20.434;2022-07-03T16:21:10;8.00;;;4.57;;
63567;SDS011;49715;42.386;20.434;2022-07-03T16:23:39;7.22;;;4.25;;
63567;SDS011;49715;42.386;20.434;2022-07-03T16:26:10;6.45;;;4.18;;
63567;SDS011;49715;42.386;20.434;2022-07-03T16:28:36;4.95;;;4.43;;
63567;SDS011;49715;42.386;20.434;2022-07-03T16:31:05;8.85;;;4.43;;
63567;SDS011;49715;42.386;20.434;2022-07-03T16:33:40;7.78;;;4.20;;
63567;SDS011;49715;42.386;20.434;2022-07-03T16:36:19;11.05;;;5.05;;
63567;SDS011;49715;42.386;20.434;2022-07-03T16:38:51;14.65;;;5.30;;
63567;SDS011;49715;42.386;20.434;2022-07-03T16:41:22;10.98;;;5.63;;
63567;SDS011;49715;42.386;20.434;2022-07-03T16:43:53;10.60;;;5.80;;
63567;SDS011;49715;42.386;20.434;2022-07-03T16:46:26;11.85;;;5.65;;
63567;SDS011;49715;42.386;20.434;2022-07-03T16:48:56;8.77;;;5.50;;
63567;SDS011;49715;42.386;20.434;2022-07-03T16:51:28;16.90;;;5.72;;
63567;SDS011;49715;42.386;20.434;2022-07-03T16:53:59;11.25;;;5.60;;
63567;SDS011;49715;42.386;20.434;2022-07-03T16:56:27;12.18;;;6.03;;
63567;SDS011;49715;42.386;20.434;2022-07-03T16:58:57;10.07;;;5.45;;
63567;SDS011;49715;42.386;20.434;2022-07-03T17:01:26;14.70;;;5.60;;
63567;SDS011;49715;42.386;20.434;2022-07-03T17:03:54;12.23;;;5.20;;
63567;SDS011;49715;42.386;20.434;2022-07-03T17:06:25;10.82;;;5.07;;
63567;SDS011;49715;42.386;20.434;2022-07-03T17:08:52;10.88;;;5.32;;
63567;SDS011;49715;42.386;20.434;2022-07-03T17:11:20;7.10;;;4.93;;
63567;SDS011;49715;42.386;20.434;2022-07-03T17:13:47;11.65;;;4.88;;
63567;SDS011;49715;42.386;20.434;2022-07-03T17:16:13;9.20;;;5.28;;
63567;SDS011;49715;42.386;20.434;2022-07-03T17:18:47;11.07;;;4.88;;
63567;SDS011;49715;42.386;20.434;2022-07-03T17:21:22;11.55;;;5.03;;
63567;SDS011;49715;42.386;20.434;2022-07-03T17:23:52;10.07;;;5.15;;